Time;durP1;ratioP1;P1;durP2;ratioP2;P2;SDS_P1;SDS_P2;PMS_P1;PMS_P2;Temp;Humidity;BMP_temperature;BMP_pressure;BME280_temperature;BME280_humidity;BME280_pressure;Samples;Min_cycle;Max_cycle;Signal;HPM_P1;HPM_P2
2023/12/12 00:00:32;;;;;;;34.17;32.30;;;;;;;;;;4999232;28;20062;-61
2023/12/12 00:03:00;;;;;;;34.20;32.15;;;;;;;;;;5001579;28;20034;-62
2023/12/12 00:05:26;;;;;;;33.00;31.30;;;;;;;;;;5000575;28;20034;-62
2023/12/12 00:07:51;;;;;;;35.78;33.58;;;;;;;;;;5000386;28;20052;-62
2023/12/12 00:10:17;;;;;;;33.83;32.03;;;;;;;;;;4997661;28;20467;-62
2023/12/12 00:12:43;;;;;;;35.65;33.28;;;;;;;;;;5000415;28;20423;-63
2023/12/12 00:15:08;;;;;;;33.92;31.92;;;;;;;;;;4999666;28;20051;-62
2023/12/12 00:17:34;;;;;;;34.00;32.25;;;;;;;;;;4997454;28;20041;-62
2023/12/12 00:19:59;;;;;;;35.92;33.80;;;;;;;;;;4996838;28;20034;-62
2023/12/12 00:22:25;;;;;;;36.05;33.72;;;;;;;;;;4999060;28;20029;-62
2023/12/12 00:24:50;;;;;;;34.25;31.98;;;;;;;;;;5001209;28;20079;-62
2023/12/12 00:27:16;;;;;;;33.95;31.70;;;;;;;;;;5002534;28;20072;-62
2023/12/12 00:29:41;;;;;;;34.90;33.05;;;;;;;;;;4999618;28;20360;-62
2023/12/12 00:32:07;;;;;;;33.83;32.03;;;;;;;;;;4998206;28;20634;-62
2023/12/12 00:34:36;;;;;;;35.33;33.28;;;;;;;;;;4997509;28;20053;-62
2023/12/12 00:37:02;;;;;;;34.00;32.00;;;;;;;;;;5000015;28;20042;-62
2023/12/12 00:39:27;;;;;;;36.20;34.30;;;;;;;;;;4996417;28;20030;-63
2023/12/12 00:41:53;;;;;;;35.95;34.08;;;;;;;;;;4998666;28;20042;-62
2023/12/12 00:44:18;;;;;;;35.50;33.67;;;;;;;;;;5000782;28;20048;-62
2023/12/12 00:46:43;;;;;;;35.88;33.88;;;;;;;;;;4994762;28;20165;-62
2023/12/12 00:49:09;;;;;;;34.85;32.88;;;;;;;;;;5000219;28;20038;-62
2023/12/12 00:51:34;;;;;;;33.30;31.40;;;;;;;;;;4998811;28;20125;-62
2023/12/12 00:53:59;;;;;;;34.35;32.55;;;;;;;;;;4999686;28;20025;-62
2023/12/12 00:56:24;;;;;;;36.22;33.38;;;;;;;;;;4998525;28;20041;-63
2023/12/12 00:58:50;;;;;;;35.17;33.35;;;;;;;;;;4998042;28;20050;-60
2023/12/12 01:01:15;;;;;;;37.30;35.20;;;;;;;;;;4996968;28;20033;-59
2023/12/12 01:03:41;;;;;;;37.65;35.33;;;;;;;;;;4998618;28;20033;-59
2023/12/12 01:06:06;;;;;;;33.10;31.38;;;;;;;;;;4999910;28;20565;-59
2023/12/12 01:08:33;;;;;;;33.75;31.55;;;;;;;;;;4997790;28;20091;-59
2023/12/12 01:10:58;;;;;;;34.35;32.22;;;;;;;;;;4997988;28;20038;-59
2023/12/12 01:13:24;;;;;;;32.95;31.20;;;;;;;;;;4999266;28;20034;-59
2023/12/12 01:15:49;;;;;;;33.10;31.35;;;;;;;;;;4996672;28;20030;-60
2023/12/12 01:18:14;;;;;;;33.10;31.30;;;;;;;;;;4997975;28;20491;-60
2023/12/12 01:20:40;;;;;;;37.63;34.10;;;;;;;;;;4996135;28;20053;-60
2023/12/12 01:23:05;;;;;;;33.60;31.50;;;;;;;;;;4997991;28;20022;-60
2023/12/12 01:25:31;;;;;;;32.22;30.52;;;;;;;;;;5000820;28;20037;-60
2023/12/12 01:27:57;;;;;;;35.20;33.28;;;;;;;;;;4998364;28;20030;-59
2023/12/12 01:30:22;;;;;;;31.48;29.83;;;;;;;;;;4995768;28;20040;-59
2023/12/12 01:32:47;;;;;;;32.50;30.83;;;;;;;;;;4998380;28;20046;-59
2023/12/12 01:35:13;;;;;;;32.72;31.05;;;;;;;;;;4998287;28;20034;-59
2023/12/12 01:37:38;;;;;;;32.20;30.52;;;;;;;;;;4999273;28;20111;-59
2023/12/12 01:40:04;;;;;;;34.72;32.53;;;;;;;;;;4996724;28;20636;-61
2023/12/12 01:42:30;;;;;;;32.85;30.95;;;;;;;;;;4999980;28;20069;-59
2023/12/12 01:44:56;;;;;;;34.90;33.03;;;;;;;;;;4996614;28;20069;-60
2023/12/12 01:47:21;;;;;;;34.63;32.72;;;;;;;;;;4997669;28;20034;-60
2023/12/12 01:49:47;;;;;;;34.40;32.58;;;;;;;;;;5000225;28;20042;-60
2023/12/12 01:52:13;;;;;;;34.13;32.30;;;;;;;;;;4998449;28;20103;-59
2023/12/12 01:54:44;;;;;;;35.13;32.92;;;;;;;;;;4997186;28;20084;-59
2023/12/12 01:57:11;;;;;;;32.92;31.23;;;;;;;;;;4998092;28;20042;-59
2023/12/12 01:59:37;;;;;;;33.13;31.42;;;;;;;;;;4998638;28;20037;-60
2023/12/12 02:02:03;;;;;;;35.08;33.22;;;;;;;;;;4996904;28;20049;-59
2023/12/12 02:04:28;;;;;;;32.63;30.88;;;;;;;;;;4999219;28;20113;-59
2023/12/12 02:06:56;;;;;;;35.45;33.45;;;;;;;;;;4999649;28;20077;-59
2023/12/12 02:09:21;;;;;;;34.85;32.42;;;;;;;;;;4996759;28;20131;-59
2023/12/12 02:11:47;;;;;;;34.60;32.70;;;;;;;;;;4997688;28;20066;-59
2023/12/12 02:14:12;;;;;;;33.47;31.77;;;;;;;;;;4996787;28;20119;-59
2023/12/12 02:16:38;;;;;;;34.60;32.75;;;;;;;;;;4994903;28;20065;-59
2023/12/12 02:19:04;;;;;;;34.17;32.38;;;;;;;;;;4996342;28;20033;-59
2023/12/12 02:21:29;;;;;;;36.10;34.20;;;;;;;;;;4998154;28;20049;-59
2023/12/12 02:23:54;;;;;;;37.08;35.17;;;;;;;;;;4995156;28;20072;-59
2023/12/12 02:26:20;;;;;;;36.60;34.65;;;;;;;;;;5005721;28;20030;-62
2023/12/12 02:28:46;;;;;;;35.40;33.50;;;;;;;;;;5000884;28;20421;-62
2023/12/12 02:31:12;;;;;;;37.60;35.50;;;;;;;;;;5001889;28;20066;-62
2023/12/12 02:33:38;;;;;;;38.33;36.08;;;;;;;;;;5002901;28;20037;-62
2023/12/12 02:36:04;;;;;;;37.78;35.47;;;;;;;;;;5005667;28;20542;-62
2023/12/12 02:38:29;;;;;;;41.45;39.10;;;;;;;;;;5002840;28;20120;-62
2023/12/12 02:40:54;;;;;;;40.63;38.10;;;;;;;;;;4999991;28;20027;-61
2023/12/12 02:43:20;;;;;;;40.00;37.90;;;;;;;;;;5001752;28;20031;-61
2023/12/12 02:45:45;;;;;;;41.83;39.13;;;;;;;;;;5001135;28;20134;-61
2023/12/12 02:48:11;;;;;;;42.08;39.92;;;;;;;;;;5005871;28;20041;-62
2023/12/12 02:50:36;;;;;;;45.28;41.38;;;;;;;;;;5003032;28;20046;-62
2023/12/12 02:53:02;;;;;;;41.90;39.67;;;;;;;;;;4999868;28;20369;-62
2023/12/12 02:55:27;;;;;;;43.35;41.05;;;;;;;;;;5003260;28;20372;-62
2023/12/12 02:57:52;;;;;;;43.55;40.83;;;;;;;;;;5000241;28;20175;-62
2023/12/12 03:00:18;;;;;;;43.13;40.92;;;;;;;;;;5001759;28;20037;-59
2023/12/12 03:02:43;;;;;;;40.70;38.60;;;;;;;;;;5002600;28;20034;-59
2023/12/12 03:05:09;;;;;;;43.22;40.83;;;;;;;;;;5001897;28;20112;-59
2023/12/12 03:07:34;;;;;;;42.65;40.40;;;;;;;;;;5003772;28;20042;-59
2023/12/12 03:09:59;;;;;;;45.05;42.30;;;;;;;;;;5000839;28;20580;-62
2023/12/12 03:12:25;;;;;;;44.80;41.50;;;;;;;;;;5002169;28;20045;-62
2023/12/12 03:14:50;;;;;;;46.45;44.10;;;;;;;;;;5034057;28;20782;-62
2023/12/12 03:17:16;;;;;;;48.92;46.33;;;;;;;;;;4999043;28;20033;-62
2023/12/12 03:19:41;;;;;;;46.17;43.85;;;;;;;;;;5001600;28;20052;-62
2023/12/12 03:22:06;;;;;;;44.53;42.20;;;;;;;;;;5001059;28;20568;-62
2023/12/12 03:24:32;;;;;;;47.28;44.75;;;;;;;;;;4999873;28;20117;-62
2023/12/12 03:26:58;;;;;;;45.97;43.58;;;;;;;;;;5003986;28;20578;-63
2023/12/12 03:29:23;;;;;;;45.13;42.72;;;;;;;;;;5001042;28;20050;-62
2023/12/12 03:31:48;;;;;;;47.85;45.35;;;;;;;;;;4996630;28;20954;-60
2023/12/12 03:34:14;;;;;;;45.40;43.00;;;;;;;;;;4999144;28;20038;-60
2023/12/12 03:36:43;;;;;;;45.70;42.75;;;;;;;;;;4999116;28;20044;-60
2023/12/12 03:39:09;;;;;;;43.28;40.97;;;;;;;;;;4998710;28;20044;-60
2023/12/12 03:41:35;;;;;;;44.33;42.00;;;;;;;;;;4997594;28;20026;-60
2023/12/12 03:44:00;;;;;;;43.50;41.28;;;;;;;;;;4997979;28;20632;-60
2023/12/12 03:46:25;;;;;;;44.03;41.83;;;;;;;;;;4996716;28;20164;-60
2023/12/12 03:48:51;;;;;;;40.03;38.00;;;;;;;;;;5000695;28;20155;-60
2023/12/12 03:51:16;;;;;;;43.92;41.35;;;;;;;;;;4999350;28;20570;-60
2023/12/12 03:53:41;;;;;;;43.40;41.15;;;;;;;;;;4998228;28;20061;-62
2023/12/12 03:56:08;;;;;;;42.28;39.63;;;;;;;;;;4999766;28;20030;-60
2023/12/12 03:58:33;;;;;;;43.55;41.00;;;;;;;;;;4999657;28;20033;-60
2023/12/12 04:00:59;;;;;;;42.95;40.10;;;;;;;;;;4999595;28;20041;-60
2023/12/12 04:03:24;;;;;;;42.88;40.42;;;;;;;;;;4998494;28;20490;-61
2023/12/12 04:05:50;;;;;;;41.53;39.42;;;;;;;;;;4999921;28;20498;-60
2023/12/12 04:08:15;;;;;;;43.28;41.08;;;;;;;;;;5000758;28;20061;-60
2023/12/12 04:10:40;;;;;;;39.92;37.65;;;;;;;;;;4997292;28;20035;-60
2023/12/12 04:13:06;;;;;;;42.83;40.25;;;;;;;;;;4998774;28;20212;-61
2023/12/12 04:15:31;;;;;;;40.95;38.85;;;;;;;;;;4998007;28;20036;-60
2023/12/12 04:17:57;;;;;;;39.50;37.28;;;;;;;;;;4999634;28;20469;-60
2023/12/12 04:20:22;;;;;;;42.53;40.22;;;;;;;;;;4997845;28;20578;-60
2023/12/12 04:22:47;;;;;;;42.38;39.88;;;;;;;;;;4998921;28;20040;-60
2023/12/12 04:25:13;;;;;;;41.30;39.15;;;;;;;;;;4999181;28;20131;-60
2023/12/12 04:27:38;;;;;;;41.08;38.75;;;;;;;;;;4999503;28;20088;-60
2023/12/12 04:30:05;;;;;;;43.78;41.45;;;;;;;;;;5000186;28;20025;-60
2023/12/12 04:32:30;;;;;;;43.47;40.95;;;;;;;;;;4999951;28;20034;-60
2023/12/12 04:34:56;;;;;;;41.80;39.40;;;;;;;;;;5000674;28;20045;-60
2023/12/12 04:37:21;;;;;;;46.85;43.47;;;;;;;;;;5000100;28;20045;-60
2023/12/12 04:39:47;;;;;;;43.83;41.53;;;;;;;;;;4999958;28;20113;-60
2023/12/12 04:42:13;;;;;;;44.03;41.63;;;;;;;;;;4999595;28;20030;-60
2023/12/12 04:44:41;;;;;;;45.15;42.85;;;;;;;;;;4995961;28;20038;-60
2023/12/12 04:47:07;;;;;;;45.08;42.67;;;;;;;;;;4998011;28;20415;-60
2023/12/12 04:49:33;;;;;;;44.38;42.10;;;;;;;;;;4997819;28;20036;-60
2023/12/12 04:51:58;;;;;;;43.28;40.70;;;;;;;;;;4998900;28;20380;-60
2023/12/12 04:54:23;;;;;;;44.75;42.38;;;;;;;;;;4997951;28;20034;-60
2023/12/12 04:56:48;;;;;;;44.15;41.83;;;;;;;;;;4996516;28;20038;-60
2023/12/12 04:59:14;;;;;;;44.17;41.67;;;;;;;;;;5000879;28;20608;-60
2023/12/12 05:01:39;;;;;;;46.42;43.88;;;;;;;;;;4997379;28;20487;-60
2023/12/12 05:04:05;;;;;;;43.28;41.03;;;;;;;;;;5001331;28;20033;-60
2023/12/12 05:06:30;;;;;;;46.90;44.25;;;;;;;;;;4997194;28;20034;-60
2023/12/12 05:08:55;;;;;;;48.13;45.42;;;;;;;;;;4996611;28;20125;-60
2023/12/12 05:11:21;;;;;;;46.97;44.38;;;;;;;;;;4996349;28;20080;-60
2023/12/12 05:13:46;;;;;;;45.40;42.90;;;;;;;;;;4999149;28;20412;-60
2023/12/12 05:16:12;;;;;;;47.53;45.00;;;;;;;;;;4996820;28;20034;-60
2023/12/12 05:18:38;;;;;;;47.25;44.63;;;;;;;;;;4998616;28;20395;-60
2023/12/12 05:21:04;;;;;;;49.35;46.58;;;;;;;;;;4999178;28;20033;-60
2023/12/12 05:23:29;;;;;;;47.13;43.63;;;;;;;;;;4996377;28;20038;-60
2023/12/12 05:25:54;;;;;;;47.35;43.17;;;;;;;;;;5000702;28;20116;-60
2023/12/12 05:28:21;;;;;;;45.25;42.75;;;;;;;;;;4995688;28;20125;-60
2023/12/12 05:30:47;;;;;;;43.53;41.15;;;;;;;;;;4996275;28;20048;-60
2023/12/12 05:33:15;;;;;;;44.22;41.83;;;;;;;;;;4996926;28;20042;-60
2023/12/12 05:35:41;;;;;;;44.40;41.90;;;;;;;;;;4999383;28;20030;-60
2023/12/12 05:38:06;;;;;;;45.47;43.03;;;;;;;;;;4998801;28;20491;-60
2023/12/12 05:40:32;;;;;;;43.00;40.40;;;;;;;;;;4997938;28;20066;-60
2023/12/12 05:42:58;;;;;;;44.42;42.13;;;;;;;;;;4997520;28;20034;-60
2023/12/12 05:45:24;;;;;;;40.00;37.95;;;;;;;;;;4997096;28;20041;-60
2023/12/12 05:47:49;;;;;;;41.78;39.08;;;;;;;;;;5000177;28;20061;-60
2023/12/12 05:50:15;;;;;;;43.65;40.97;;;;;;;;;;5002216;28;20107;-60
2023/12/12 05:52:40;;;;;;;41.90;39.75;;;;;;;;;;4999178;28;20076;-60
2023/12/12 05:55:06;;;;;;;43.28;40.97;;;;;;;;;;4996852;28;20057;-60
2023/12/12 05:57:32;;;;;;;43.83;41.38;;;;;;;;;;5000467;28;20022;-60
2023/12/12 05:59:58;;;;;;;44.08;41.67;;;;;;;;;;4996499;28;20044;-60
2023/12/12 06:02:24;;;;;;;44.83;42.00;;;;;;;;;;4996342;28;20677;-61
2023/12/12 06:04:49;;;;;;;41.85;39.35;;;;;;;;;;4999525;28;20045;-60
2023/12/12 06:07:15;;;;;;;42.45;40.25;;;;;;;;;;4996118;28;20029;-60
2023/12/12 06:09:41;;;;;;;41.15;39.03;;;;;;;;;;4999509;28;20415;-60
2023/12/12 06:12:07;;;;;;;40.50;38.40;;;;;;;;;;4999263;28;20625;-60
2023/12/12 06:14:32;;;;;;;44.25;41.50;;;;;;;;;;4998765;28;20045;-60
2023/12/12 06:16:57;;;;;;;41.80;39.63;;;;;;;;;;5000815;28;20046;-60
2023/12/12 06:19:24;;;;;;;45.42;42.65;;;;;;;;;;4996567;28;20451;-60
2023/12/12 06:21:53;;;;;;;40.40;38.28;;;;;;;;;;4999535;28;20034;-60
2023/12/12 06:24:18;;;;;;;39.50;36.85;;;;;;;;;;4996620;28;20034;-60
2023/12/12 06:26:44;;;;;;;41.25;39.08;;;;;;;;;;4998730;28;20038;-60
2023/12/12 06:29:09;;;;;;;37.97;35.97;;;;;;;;;;5000785;28;20411;-60
2023/12/12 06:31:35;;;;;;;43.30;41.05;;;;;;;;;;5000053;28;20030;-60
2023/12/12 06:34:01;;;;;;;40.40;38.30;;;;;;;;;;5000973;28;20091;-60
2023/12/12 06:36:26;;;;;;;37.97;35.85;;;;;;;;;;4997504;28;20038;-60
2023/12/12 06:38:52;;;;;;;36.30;34.42;;;;;;;;;;4998601;28;20042;-61
2023/12/12 06:41:18;;;;;;;37.20;35.30;;;;;;;;;;4997644;28;20026;-60
2023/12/12 06:43:43;;;;;;;35.10;33.20;;;;;;;;;;5000289;28;20112;-60
2023/12/12 06:46:09;;;;;;;36.30;34.40;;;;;;;;;;4996694;28;20045;-60
2023/12/12 06:48:36;;;;;;;36.17;34.17;;;;;;;;;;5000582;28;20038;-59
2023/12/12 06:51:06;;;;;;;36.60;34.70;;;;;;;;;;4998669;28;20038;-60
2023/12/12 06:53:31;;;;;;;38.20;36.20;;;;;;;;;;4997274;28;20030;-59
2023/12/12 06:55:57;;;;;;;35.67;33.85;;;;;;;;;;4996800;28;20514;-59
2023/12/12 06:58:24;;;;;;;36.47;34.28;;;;;;;;;;4997870;28;20160;-59
2023/12/12 07:00:49;;;;;;;35.63;33.78;;;;;;;;;;4996879;28;20026;-61
2023/12/12 07:03:15;;;;;;;39.00;36.65;;;;;;;;;;4998582;28;20549;-60
2023/12/12 07:05:40;;;;;;;33.88;32.10;;;;;;;;;;4995518;28;20034;-60
2023/12/12 07:08:05;;;;;;;35.90;34.00;;;;;;;;;;4997572;28;20029;-60
2023/12/12 07:10:31;;;;;;;37.95;35.95;;;;;;;;;;4998299;28;20049;-60
2023/12/12 07:12:58;;;;;;;38.00;35.90;;;;;;;;;;4997813;28;20040;-59
2023/12/12 07:15:25;;;;;;;36.60;34.38;;;;;;;;;;4998344;28;20043;-59
2023/12/12 07:17:50;;;;;;;35.90;33.65;;;;;;;;;;5004913;28;20030;-60
2023/12/12 07:20:16;;;;;;;33.97;32.17;;;;;;;;;;5001580;28;20037;-60
2023/12/12 07:22:42;;;;;;;38.63;35.65;;;;;;;;;;4999956;28;20155;-60
2023/12/12 07:25:08;;;;;;;35.88;33.78;;;;;;;;;;5000446;28;20104;-60
2023/12/12 07:27:33;;;;;;;35.28;33.30;;;;;;;;;;4999856;28;20502;-60
2023/12/12 07:29:59;;;;;;;36.95;34.90;;;;;;;;;;5000553;28;20365;-60
2023/12/12 07:32:26;;;;;;;34.33;32.28;;;;;;;;;;5002461;28;20064;-60
2023/12/12 07:34:52;;;;;;;35.13;33.25;;;;;;;;;;5000859;28;20037;-59
2023/12/12 07:37:17;;;;;;;35.55;32.97;;;;;;;;;;5003352;28;20083;-59
2023/12/12 07:39:43;;;;;;;34.78;32.47;;;;;;;;;;5016323;28;20030;-60
2023/12/12 07:42:08;;;;;;;35.92;33.90;;;;;;;;;;5000112;28;20022;-60
2023/12/12 07:44:33;;;;;;;34.72;32.83;;;;;;;;;;4998890;28;20586;-60
2023/12/12 07:47:01;;;;;;;36.55;34.42;;;;;;;;;;4999827;28;20388;-60
2023/12/12 07:49:28;;;;;;;34.38;32.30;;;;;;;;;;4999559;28;20136;-60
2023/12/12 07:51:53;;;;;;;33.85;31.92;;;;;;;;;;5000550;28;20462;-61
2023/12/12 07:54:18;;;;;;;32.72;30.92;;;;;;;;;;4999279;28;20034;-61
2023/12/12 07:56:44;;;;;;;33.60;31.70;;;;;;;;;;5000695;28;20426;-61
2023/12/12 07:59:09;;;;;;;34.60;31.83;;;;;;;;;;4999749;28;20038;-61
2023/12/12 08:01:36;;;;;;;33.13;31.05;;;;;;;;;;4998063;28;20022;-61
2023/12/12 08:04:04;;;;;;;30.63;28.98;;;;;;;;;;4999202;28;20030;-61
2023/12/12 08:06:30;;;;;;;31.27;29.60;;;;;;;;;;5001990;28;20037;-61
2023/12/12 08:08:55;;;;;;;35.72;33.85;;;;;;;;;;4982613;28;20033;-61
2023/12/12 08:11:24;;;;;;;32.50;30.63;;;;;;;;;;4998615;28;20049;-61
2023/12/12 08:13:49;;;;;;;31.02;29.33;;;;;;;;;;5001638;28;20046;-61
2023/12/12 08:16:15;;;;;;;31.75;30.05;;;;;;;;;;5000765;28;20033;-61
2023/12/12 08:18:40;;;;;;;31.50;29.75;;;;;;;;;;4995843;28;20038;-60
2023/12/12 08:21:07;;;;;;;33.15;31.33;;;;;;;;;;4998201;28;20046;-60
2023/12/12 08:23:34;;;;;;;31.90;30.05;;;;;;;;;;5001804;28;20040;-60
2023/12/12 08:26:00;;;;;;;30.38;28.77;;;;;;;;;;4998696;28;20037;-59
2023/12/12 08:28:26;;;;;;;32.88;31.08;;;;;;;;;;4997787;28;20889;-59
2023/12/12 08:30:51;;;;;;;31.83;29.70;;;;;;;;;;5000855;28;20038;-60
2023/12/12 08:33:18;;;;;;;32.92;30.83;;;;;;;;;;5000571;28;20026;-60
2023/12/12 08:35:43;;;;;;;35.97;32.78;;;;;;;;;;4997888;28;20086;-60
2023/12/12 08:38:09;;;;;;;35.22;33.30;;;;;;;;;;4998917;28;20473;-60
2023/12/12 08:40:34;;;;;;;36.03;33.60;;;;;;;;;;4994264;28;20037;-60
2023/12/12 08:42:59;;;;;;;36.00;33.80;;;;;;;;;;4999431;28;20096;-59
2023/12/12 08:45:25;;;;;;;36.30;34.38;;;;;;;;;;4994975;28;20107;-59
2023/12/12 08:47:50;;;;;;;35.33;33.22;;;;;;;;;;5001909;28;20034;-59
2023/12/12 08:50:15;;;;;;;38.65;36.28;;;;;;;;;;4999124;28;20695;-59
2023/12/12 08:52:41;;;;;;;36.88;34.67;;;;;;;;;;4997448;28;20371;-59
2023/12/12 08:55:11;;;;;;;37.15;34.85;;;;;;;;;;4994458;28;20034;-60
2023/12/12 08:57:39;;;;;;;39.10;36.10;;;;;;;;;;4993736;28;20025;-59
2023/12/12 09:00:12;;;;;;;38.65;36.38;;;;;;;;;;4995628;28;20065;-60
2023/12/12 09:02:39;;;;;;;39.40;36.90;;;;;;;;;;4999021;28;20036;-59
2023/12/12 09:05:06;;;;;;;37.22;34.92;;;;;;;;;;4999192;28;20390;-60
2023/12/12 09:07:33;;;;;;;35.17;32.92;;;;;;;;;;4995708;28;20052;-60
2023/12/12 09:09:59;;;;;;;37.80;35.60;;;;;;;;;;5000512;28;20037;-60
2023/12/12 09:12:24;;;;;;;35.45;33.15;;;;;;;;;;4999647;28;20035;-60
2023/12/12 09:14:50;;;;;;;34.92;32.67;;;;;;;;;;4996363;28;20557;-61
2023/12/12 09:17:15;;;;;;;36.90;34.38;;;;;;;;;;5001228;28;20213;-60
2023/12/12 09:19:40;;;;;;;32.22;30.35;;;;;;;;;;4997344;28;20034;-60
2023/12/12 09:22:06;;;;;;;30.90;29.30;;;;;;;;;;4998545;28;20093;-60
2023/12/12 09:24:33;;;;;;;33.15;31.27;;;;;;;;;;4996009;28;20045;-60
2023/12/12 09:26:59;;;;;;;34.08;32.08;;;;;;;;;;4997602;28;20099;-60
2023/12/12 09:29:24;;;;;;;35.03;33.10;;;;;;;;;;4996609;28;20026;-61
2023/12/12 09:31:49;;;;;;;34.67;32.35;;;;;;;;;;4995944;28;20473;-58
2023/12/12 09:34:15;;;;;;;32.97;31.27;;;;;;;;;;4997285;28;20633;-61
2023/12/12 09:36:40;;;;;;;32.95;31.15;;;;;;;;;;4999078;28;20479;-60
2023/12/12 09:39:07;;;;;;;36.17;33.47;;;;;;;;;;4997889;28;20044;-58
2023/12/12 09:41:33;;;;;;;36.15;32.45;;;;;;;;;;4999206;28;20484;-59
2023/12/12 09:44:00;;;;;;;35.67;33.13;;;;;;;;;;4994040;28;20572;-61
2023/12/12 09:46:26;;;;;;;31.65;29.95;;;;;;;;;;4998141;28;20460;-59
2023/12/12 09:48:54;;;;;;;30.90;29.30;;;;;;;;;;4995966;28;20085;-58
2023/12/12 09:51:21;;;;;;;29.63;28.00;;;;;;;;;;4999031;28;20022;-59
2023/12/12 09:53:47;;;;;;;31.20;29.52;;;;;;;;;;4994777;28;20030;-59
2023/12/12 09:56:16;;;;;;;33.17;30.30;;;;;;;;;;4998236;28;20091;-58
2023/12/12 09:58:48;;;;;;;31.33;29.35;;;;;;;;;;4997988;28;20034;-58
2023/12/12 10:01:15;;;;;;;31.38;29.58;;;;;;;;;;4995250;28;20034;-58
2023/12/12 10:03:40;;;;;;;31.75;29.83;;;;;;;;;;4994843;28;20504;-58
2023/12/12 10:06:08;;;;;;;30.95;29.10;;;;;;;;;;4997290;28;20042;-58
2023/12/12 10:08:38;;;;;;;33.75;30.67;;;;;;;;;;4996619;28;20038;-58
2023/12/12 10:11:08;;;;;;;37.63;35.53;;;;;;;;;;4996030;28;20069;-59
2023/12/12 10:14:02;;;;;;;34.83;32.77;;;;;;;;;;4996747;28;20034;-58
2023/12/12 10:16:30;;;;;;;34.30;32.45;;;;;;;;;;4979471;28;20073;-58
2023/12/12 10:18:58;;;;;;;34.72;32.92;;;;;;;;;;4995610;28;20034;-59
2023/12/12 10:21:26;;;;;;;35.13;32.72;;;;;;;;;;4995468;28;20197;-58
2023/12/12 10:23:52;;;;;;;37.55;35.35;;;;;;;;;;4994496;28;20042;-59
2023/12/12 10:26:29;;;;;;;41.22;38.83;;;;;;;;;;4996500;28;20526;-59
2023/12/12 10:28:57;;;;;;;38.00;36.03;;;;;;;;;;4998905;28;20118;-59
2023/12/12 10:31:22;;;;;;;45.58;41.63;;;;;;;;;;4997286;28;20030;-59
2023/12/12 10:33:49;;;;;;;41.20;39.05;;;;;;;;;;4997452;28;20040;-59
2023/12/12 10:36:14;;;;;;;47.17;44.78;;;;;;;;;;4996678;28;20038;-59
2023/12/12 10:38:39;;;;;;;45.50;43.10;;;;;;;;;;4996409;28;20042;-59
2023/12/12 10:41:16;;;;;;;46.70;44.15;;;;;;;;;;4995448;28;20026;-59
2023/12/12 10:43:43;;;;;;;46.17;43.70;;;;;;;;;;4996188;28;20033;-59
2023/12/12 10:46:12;;;;;;;45.95;43.45;;;;;;;;;;5001317;28;20440;-59
2023/12/12 10:48:42;;;;;;;46.00;43.40;;;;;;;;;;5000713;28;20037;-59
2023/12/12 10:51:10;;;;;;;48.95;46.15;;;;;;;;;;5000565;28;20054;-59
2023/12/12 10:53:36;;;;;;;44.05;41.75;;;;;;;;;;5003387;28;20049;-59
2023/12/12 10:56:03;;;;;;;40.28;38.20;;;;;;;;;;5000666;28;20038;-59
2023/12/12 10:58:29;;;;;;;42.25;39.95;;;;;;;;;;5002189;28;20052;-59
2023/12/12 11:00:57;;;;;;;44.22;41.92;;;;;;;;;;5003972;28;20041;-58
2023/12/12 11:03:22;;;;;;;41.45;39.25;;;;;;;;;;5001620;28;20072;-59
2023/12/12 11:05:49;;;;;;;40.30;38.05;;;;;;;;;;4999636;28;20074;-59
2023/12/12 11:08:15;;;;;;;37.25;35.17;;;;;;;;;;5001067;28;20034;-58
2023/12/12 11:10:40;;;;;;;35.05;33.20;;;;;;;;;;5002902;28;20069;-59
2023/12/12 11:13:06;;;;;;;35.30;33.30;;;;;;;;;;4998454;28;20061;-59
2023/12/12 11:15:33;;;;;;;35.20;32.65;;;;;;;;;;4999625;28;20273;-59
2023/12/12 11:17:59;;;;;;;33.83;32.03;;;;;;;;;;4998782;28;20542;-57
2023/12/12 11:20:24;;;;;;;35.03;32.92;;;;;;;;;;5003196;28;20029;-58
2023/12/12 11:22:51;;;;;;;34.45;32.65;;;;;;;;;;4999376;28;20042;-58
2023/12/12 11:25:21;;;;;;;34.15;31.58;;;;;;;;;;5001137;28;20613;-59
2023/12/12 11:27:56;;;;;;;33.53;31.52;;;;;;;;;;4999464;28;20042;-57
2023/12/12 11:30:38;;;;;;;35.85;33.95;;;;;;;;;;4998536;28;20053;-58
2023/12/12 11:33:07;;;;;;;31.88;30.23;;;;;;;;;;5000263;28;20045;-58
2023/12/12 11:35:33;;;;;;;35.78;32.42;;;;;;;;;;5000695;28;20040;-58
2023/12/12 11:38:02;;;;;;;36.15;34.25;;;;;;;;;;5002184;28;20026;-58
2023/12/12 11:40:27;;;;;;;36.67;34.70;;;;;;;;;;5000375;28;20072;-56
2023/12/12 11:43:15;;;;;;;37.08;34.55;;;;;;;;;;5001436;28;20061;-57
2023/12/12 11:45:41;;;;;;;34.88;32.88;;;;;;;;;;5000831;28;20046;-58
2023/12/12 11:48:08;;;;;;;39.75;37.60;;;;;;;;;;4999456;28;20037;-54
2023/12/12 11:50:33;;;;;;;47.33;44.58;;;;;;;;;;5001862;28;20026;-57
2023/12/12 11:53:01;;;;;;;52.65;49.83;;;;;;;;;;5001564;28;20133;-57
2023/12/12 11:55:32;;;;;;;58.08;55.05;;;;;;;;;;5002515;28;20048;-57
2023/12/12 11:57:58;;;;;;;50.22;47.53;;;;;;;;;;4999328;28;20050;-57
2023/12/12 12:00:24;;;;;;;58.20;55.22;;;;;;;;;;5000862;28;20049;-57
2023/12/12 12:02:49;;;;;;;59.10;55.90;;;;;;;;;;4997885;28;20034;-57
2023/12/12 12:05:14;;;;;;;60.35;56.42;;;;;;;;;;5000733;28;20100;-58
2023/12/12 12:07:40;;;;;;;55.88;52.80;;;;;;;;;;4998430;28;20056;-57
2023/12/12 12:10:08;;;;;;;57.38;54.40;;;;;;;;;;4998972;28;20135;-60
2023/12/12 12:12:34;;;;;;;57.03;54.03;;;;;;;;;;5001607;28;20034;-61
2023/12/12 12:15:07;;;;;;;57.22;54.33;;;;;;;;;;4999078;28;20038;-61
2023/12/12 12:17:36;;;;;;;59.58;56.30;;;;;;;;;;4997848;28;20626;-60
2023/12/12 12:20:02;;;;;;;55.63;52.70;;;;;;;;;;4998831;28;20030;-61
2023/12/12 12:22:28;;;;;;;49.78;47.17;;;;;;;;;;5002337;28;20565;-61
2023/12/12 12:24:54;;;;;;;48.85;46.13;;;;;;;;;;4998514;28;20057;-61
2023/12/12 12:27:19;;;;;;;46.75;44.25;;;;;;;;;;5000169;28;20034;-61
2023/12/12 12:30:02;;;;;;;57.17;54.15;;;;;;;;;;5000446;28;20026;-61
2023/12/12 12:32:28;;;;;;;57.65;54.30;;;;;;;;;;4998725;28;20089;-61
2023/12/12 12:35:09;;;;;;;55.70;52.75;;;;;;;;;;4999654;28;20046;-62
2023/12/12 12:37:36;;;;;;;;;;;;;;;;;;4999655;28;20492;-60
2023/12/12 12:40:05;;;;;;;40.45;38.30;;;;;;;;;;4984636;28;19925;-60
2023/12/12 12:42:38;;;;;;;47.92;45.38;;;;;;;;;;5002545;28;20033;-60
2023/12/12 12:45:06;;;;;;;53.97;51.20;;;;;;;;;;5002706;28;20052;-60
2023/12/12 12:47:32;;;;;;;58.40;55.38;;;;;;;;;;5004251;28;21139;-61
2023/12/12 12:50:01;;;;;;;60.65;57.50;;;;;;;;;;4997394;28;20432;-61
2023/12/12 12:52:27;;;;;;;58.67;55.10;;;;;;;;;;5002981;28;20036;-57
2023/12/12 12:54:52;;;;;;;54.17;51.20;;;;;;;;;;4998778;28;20033;-58
2023/12/12 12:57:17;;;;;;;50.25;47.65;;;;;;;;;;4998611;28;20045;-58
2023/12/12 12:59:43;;;;;;;45.42;43.08;;;;;;;;;;4999585;28;20588;-57
2023/12/12 13:02:09;;;;;;;42.72;40.50;;;;;;;;;;4998967;28;20033;-57
2023/12/12 13:04:35;;;;;;;39.72;37.53;;;;;;;;;;4998962;28;20407;-57
2023/12/12 13:07:03;;;;;;;44.08;41.67;;;;;;;;;;4999273;28;20562;-57
2023/12/12 13:09:29;;;;;;;38.28;36.28;;;;;;;;;;4999177;28;20117;-56
2023/12/12 13:11:54;;;;;;;36.58;34.47;;;;;;;;;;5000107;28;20688;-57
2023/12/12 13:14:20;;;;;;;38.83;36.78;;;;;;;;;;5000746;28;20095;-56
2023/12/12 13:16:45;;;;;;;39.47;37.38;;;;;;;;;;4996422;28;20447;-61
2023/12/12 13:19:11;;;;;;;38.53;36.38;;;;;;;;;;5000339;28;20048;-61
2023/12/12 13:21:37;;;;;;;38.03;36.03;;;;;;;;;;4997887;28;20125;-57
2023/12/12 13:24:02;;;;;;;40.30;38.03;;;;;;;;;;4997139;28;20432;-58
2023/12/12 13:26:28;;;;;;;38.33;36.22;;;;;;;;;;4999622;28;20073;-57
2023/12/12 13:28:55;;;;;;;38.35;36.35;;;;;;;;;;5001590;28;20113;-56
2023/12/12 13:31:23;;;;;;;37.40;35.30;;;;;;;;;;4998431;28;20050;-58
2023/12/12 13:33:50;;;;;;;39.55;37.53;;;;;;;;;;4994729;28;20457;-58
2023/12/12 13:36:16;;;;;;;38.92;36.78;;;;;;;;;;5000547;28;20037;-58
2023/12/12 13:38:42;;;;;;;37.60;35.47;;;;;;;;;;5004048;28;20087;-58
2023/12/12 13:41:08;;;;;;;39.05;36.80;;;;;;;;;;4999889;28;20034;-58
2023/12/12 13:43:33;;;;;;;37.40;35.40;;;;;;;;;;4998201;28;20074;-59
2023/12/12 13:45:58;;;;;;;38.85;36.85;;;;;;;;;;4998405;28;20613;-58
2023/12/12 13:48:24;;;;;;;37.22;35.22;;;;;;;;;;4999492;28;20339;-57
2023/12/12 13:50:49;;;;;;;37.65;35.65;;;;;;;;;;4998672;28;20037;-58
2023/12/12 13:53:14;;;;;;;38.33;36.25;;;;;;;;;;4998546;28;20108;-57
2023/12/12 13:55:40;;;;;;;39.17;36.55;;;;;;;;;;4999128;28;20360;-59
2023/12/12 13:58:06;;;;;;;37.08;35.17;;;;;;;;;;4997875;28;20045;-61
2023/12/12 14:00:32;;;;;;;36.53;34.53;;;;;;;;;;4998077;28;20049;-61
2023/12/12 14:02:59;;;;;;;38.75;36.65;;;;;;;;;;4998557;28;20030;-60
2023/12/12 14:05:24;;;;;;;38.33;36.30;;;;;;;;;;4999784;28;20048;-61
2023/12/12 14:07:50;;;;;;;37.33;35.40;;;;;;;;;;5002373;28;20521;-60
2023/12/12 14:10:15;;;;;;;38.85;36.75;;;;;;;;;;4999730;28;20063;-58
2023/12/12 14:12:41;;;;;;;38.20;36.17;;;;;;;;;;4998047;28;20520;-58